sensor_id;sensor_type;location;lat;lon;timestamp;temperature;humidity
3071;DHT22;1546;47.208;9.038;2023-04-09T00:02:00;8.50;99.90
3071;DHT22;1546;47.208;9.038;2023-04-09T00:04:27;8.50;99.90
3071;DHT22;1546;47.208;9.038;2023-04-09T00:06:54;8.40;99.90
3071;DHT22;1546;47.208;9.038;2023-04-09T00:09:21;8.40;99.90
3071;DHT22;1546;47.208;9.038;2023-04-09T00:11:49;8.40;99.90
3071;DHT22;1546;47.208;9.038;2023-04-09T00:14:16;8.30;99.90
3071;DHT22;1546;47.208;9.038;2023-04-09T00:16:42;8.20;99.90
3071;DHT22;1546;47.208;9.038;2023-04-09T00:19:09;8.10;99.90
3071;DHT22;1546;47.208;9.038;2023-04-09T00:21:37;8.00;99.90
3071;DHT22;1546;47.208;9.038;2023-04-09T00:24:04;7.80;99.90
3071;DHT22;1546;47.208;9.038;2023-04-09T00:26:31;7.70;99.90
3071;DHT22;1546;47.208;9.038;2023-04-09T00:28:59;7.60;99.90
3071;DHT22;1546;47.208;9.038;2023-04-09T00:31:26;7.50;99.90
3071;DHT22;1546;47.208;9.038;2023-04-09T00:33:53;7.40;99.90
3071;DHT22;1546;47.208;9.038;2023-04-09T00:36:20;7.40;99.90
3071;DHT22;1546;47.208;9.038;2023-04-09T00:38:49;7.30;99.90
3071;DHT22;1546;47.208;9.038;2023-04-09T00:41:18;7.20;99.90
3071;DHT22;1546;47.208;9.038;2023-04-09T00:43:45;7.10;99.90
3071;DHT22;1546;47.208;9.038;2023-04-09T00:46:13;7.00;99.90
3071;DHT22;1546;47.208;9.038;2023-04-09T00:48:40;7.00;99.90
3071;DHT22;1546;47.208;9.038;2023-04-09T00:51:07;7.00;99.90
3071;DHT22;1546;47.208;9.038;2023-04-09T00:53:34;6.90;99.90
3071;DHT22;1546;47.208;9.038;2023-04-09T00:56:02;6.80;99.90
3071;DHT22;1546;47.208;9.038;2023-04-09T00:58:29;6.80;99.90
3071;DHT22;1546;47.208;9.038;2023-04-09T01:00:56;6.80;99.90
3071;DHT22;1546;47.208;9.038;2023-04-09T01:03:24;6.80;99.90
3071;DHT22;1546;47.208;9.038;2023-04-09T01:05:59;6.70;99.90
3071;DHT22;1546;47.208;9.038;2023-04-09T01:08:35;6.70;99.90
3071;DHT22;1546;47.208;9.038;2023-04-09T01:11:10;6.70;99.90
3071;DHT22;1546;47.208;9.038;2023-04-09T01:13:47;6.60;99.90
3071;DHT22;1546;47.208;9.038;2023-04-09T01:16:15;6.60;99.90
3071;DHT22;1546;47.208;9.038;2023-04-09T01:18:50;6.60;99.90
3071;DHT22;1546;47.208;9.038;2023-04-09T01:21:20;6.60;99.90
3071;DHT22;1546;47.208;9.038;2023-04-09T01:23:57;6.50;99.90
3071;DHT22;1546;47.208;9.038;2023-04-09T01:26:48;6.40;99.90
3071;DHT22;1546;47.208;9.038;2023-04-09T01:29:22;6.30;99.90
3071;DHT22;1546;47.208;9.038;2023-04-09T01:31:51;6.20;99.90
3071;DHT22;1546;47.208;9.038;2023-04-09T01:34:19;6.20;99.90
3071;DHT22;1546;47.208;9.038;2023-04-09T01:36:51;6.20;99.90
3071;DHT22;1546;47.208;9.038;2023-04-09T01:39:19;6.00;99.90
3071;DHT22;1546;47.208;9.038;2023-04-09T01:41:47;6.00;99.90
3071;DHT22;1546;47.208;9.038;2023-04-09T01:44:16;5.90;99.90
3071;DHT22;1546;47.208;9.038;2023-04-09T01:46:45;5.90;99.90
3071;DHT22;1546;47.208;9.038;2023-04-09T01:49:12;5.90;99.90
3071;DHT22;1546;47.208;9.038;2023-04-09T01:51:40;5.90;99.90
3071;DHT22;1546;47.208;9.038;2023-04-09T01:54:07;5.90;99.90
3071;DHT22;1546;47.208;9.038;2023-04-09T01:56:41;5.80;99.90
3071;DHT22;1546;47.208;9.038;2023-04-09T01:59:08;5.80;99.90
3071;DHT22;1546;47.208;9.038;2023-04-09T02:01:40;5.70;99.90
3071;DHT22;1546;47.208;9.038;2023-04-09T02:04:16;5.70;99.90
3071;DHT22;1546;47.208;9.038;2023-04-09T02:06:46;5.70;99.90
3071;DHT22;1546;47.208;9.038;2023-04-09T02:09:16;5.60;99.90
3071;DHT22;1546;47.208;9.038;2023-04-09T02:11:45;5.60;99.90
3071;DHT22;1546;47.208;9.038;2023-04-09T02:14:14;5.50;99.90
3071;DHT22;1546;47.208;9.038;2023-04-09T02:16:42;5.50;99.90
3071;DHT22;1546;47.208;9.038;2023-04-09T02:19:08;5.50;99.90
3071;DHT22;1546;47.208;9.038;2023-04-09T02:21:37;5.40;99.90
3071;DHT22;1546;47.208;9.038;2023-04-09T02:24:04;5.40;99.90
3071;DHT22;1546;47.208;9.038;2023-04-09T02:26:31;5.40;99.90
3071;DHT22;1546;47.208;9.038;2023-04-09T02:28:58;5.50;99.90
3071;DHT22;1546;47.208;9.038;2023-04-09T02:31:25;5.60;99.90
3071;DHT22;1546;47.208;9.038;2023-04-09T02:33:51;5.80;99.90
3071;DHT22;1546;47.208;9.038;2023-04-09T02:36:19;6.00;99.90
3071;DHT22;1546;47.208;9.038;2023-04-09T02:38:47;6.10;99.90
3071;DHT22;1546;47.208;9.038;2023-04-09T02:41:14;6.20;99.90
3071;DHT22;1546;47.208;9.038;2023-04-09T02:43:41;6.30;99.90
3071;DHT22;1546;47.208;9.038;2023-04-09T02:46:07;6.50;99.90
3071;DHT22;1546;47.208;9.038;2023-04-09T02:48:34;6.50;99.90
3071;DHT22;1546;47.208;9.038;2023-04-09T02:51:04;6.60;99.90
3071;DHT22;1546;47.208;9.038;2023-04-09T02:53:31;6.70;99.90
3071;DHT22;1546;47.208;9.038;2023-04-09T02:55:59;6.70;99.90
3071;DHT22;1546;47.208;9.038;2023-04-09T02:58:26;6.70;99.90
3071;DHT22;1546;47.208;9.038;2023-04-09T03:00:52;6.80;99.90
3071;DHT22;1546;47.208;9.038;2023-04-09T03:03:19;6.80;99.90
3071;DHT22;1546;47.208;9.038;2023-04-09T03:05:46;6.80;99.90
3071;DHT22;1546;47.208;9.038;2023-04-09T03:08:13;6.90;99.90
3071;DHT22;1546;47.208;9.038;2023-04-09T03:10:40;6.90;99.90
3071;DHT22;1546;47.208;9.038;2023-04-09T03:13:08;6.90;99.90
3071;DHT22;1546;47.208;9.038;2023-04-09T03:15:35;6.90;99.90
3071;DHT22;1546;47.208;9.038;2023-04-09T03:18:02;6.90;99.90
3071;DHT22;1546;47.208;9.038;2023-04-09T03:20:29;7.00;99.90
3071;DHT22;1546;47.208;9.038;2023-04-09T03:22:56;7.00;99.90
3071;DHT22;1546;47.208;9.038;2023-04-09T03:25:23;7.00;99.90
3071;DHT22;1546;47.208;9.038;2023-04-09T03:27:49;7.00;99.90
3071;DHT22;1546;47.208;9.038;2023-04-09T03:30:18;6.90;99.90
3071;DHT22;1546;47.208;9.038;2023-04-09T03:32:45;6.90;99.90
3071;DHT22;1546;47.208;9.038;2023-04-09T03:35:12;6.70;99.90
3071;DHT22;1546;47.208;9.038;2023-04-09T03:37:38;6.70;99.90
3071;DHT22;1546;47.208;9.038;2023-04-09T03:40:07;6.70;99.90
3071;DHT22;1546;47.208;9.038;2023-04-09T03:42:33;6.80;99.90
3071;DHT22;1546;47.208;9.038;2023-04-09T03:45:02;7.00;99.90
3071;DHT22;1546;47.208;9.038;2023-04-09T03:47:31;7.00;99.90
3071;DHT22;1546;47.208;9.038;2023-04-09T03:49:58;7.00;99.90
3071;DHT22;1546;47.208;9.038;2023-04-09T03:52:25;7.10;99.90
3071;DHT22;1546;47.208;9.038;2023-04-09T03:54:52;7.10;99.90
3071;DHT22;1546;47.208;9.038;2023-04-09T03:57:18;7.00;99.90
3071;DHT22;1546;47.208;9.038;2023-04-09T03:59:45;7.00;99.90
3071;DHT22;1546;47.208;9.038;2023-04-09T04:02:12;7.00;99.90
3071;DHT22;1546;47.208;9.038;2023-04-09T04:04:40;7.10;99.90
3071;DHT22;1546;47.208;9.038;2023-04-09T04:07:07;7.30;99.90
3071;DHT22;1546;47.208;9.038;2023-04-09T04:09:34;7.30;99.90
3071;DHT22;1546;47.208;9.038;2023-04-09T04:12:02;7.30;99.90
3071;DHT22;1546;47.208;9.038;2023-04-09T04:14:29;7.20;99.90
3071;DHT22;1546;47.208;9.038;2023-04-09T04:16:56;7.00;99.90
3071;DHT22;1546;47.208;9.038;2023-04-09T04:19:22;7.00;99.90
3071;DHT22;1546;47.208;9.038;2023-04-09T04:21:51;7.00;99.90
3071;DHT22;1546;47.208;9.038;2023-04-09T04:24:17;7.00;99.90
3071;DHT22;1546;47.208;9.038;2023-04-09T04:26:44;7.00;99.90
3071;DHT22;1546;47.208;9.038;2023-04-09T04:29:11;7.10;99.90
3071;DHT22;1546;47.208;9.038;2023-04-09T04:31:38;7.10;99.90
3071;DHT22;1546;47.208;9.038;2023-04-09T04:34:05;7.10;99.90
3071;DHT22;1546;47.208;9.038;2023-04-09T04:36:31;7.20;99.90
3071;DHT22;1546;47.208;9.038;2023-04-09T04:39:00;7.20;99.90
3071;DHT22;1546;47.208;9.038;2023-04-09T04:41:26;7.10;99.90
3071;DHT22;1546;47.208;9.038;2023-04-09T04:43:54;7.10;99.90
3071;DHT22;1546;47.208;9.038;2023-04-09T04:46:21;7.30;99.90
3071;DHT22;1546;47.208;9.038;2023-04-09T04:48:48;7.30;99.90
3071;DHT22;1546;47.208;9.038;2023-04-09T04:51:15;7.30;99.90
3071;DHT22;1546;47.208;9.038;2023-04-09T04:53:42;7.40;99.90
3071;DHT22;1546;47.208;9.038;2023-04-09T04:56:13;7.30;99.90
3071;DHT22;1546;47.208;9.038;2023-04-09T04:58:40;7.40;99.90
3071;DHT22;1546;47.208;9.038;2023-04-09T05:01:07;7.40;99.90
3071;DHT22;1546;47.208;9.038;2023-04-09T05:03:33;7.40;99.90
3071;DHT22;1546;47.208;9.038;2023-04-09T05:06:00;7.30;99.90
3071;DHT22;1546;47.208;9.038;2023-04-09T05:08:27;7.30;99.90
3071;DHT22;1546;47.208;9.038;2023-04-09T05:10:54;7.20;99.90
3071;DHT22;1546;47.208;9.038;2023-04-09T05:13:23;7.10;99.90
3071;DHT22;1546;47.208;9.038;2023-04-09T05:15:49;7.00;99.90
3071;DHT22;1546;47.208;9.038;2023-04-09T05:18:16;7.00;99.90
3071;DHT22;1546;47.208;9.038;2023-04-09T05:20:43;7.00;99.90
3071;DHT22;1546;47.208;9.038;2023-04-09T05:23:10;7.00;99.90
3071;DHT22;1546;47.208;9.038;2023-04-09T05:25:37;6.90;99.90
3071;DHT22;1546;47.208;9.038;2023-04-09T05:28:04;6.80;99.90
3071;DHT22;1546;47.208;9.038;2023-04-09T05:30:32;6.70;99.90
3071;DHT22;1546;47.208;9.038;2023-04-09T05:32:59;6.70;99.90
3071;DHT22;1546;47.208;9.038;2023-04-09T05:35:26;6.60;99.90
3071;DHT22;1546;47.208;9.038;2023-04-09T05:37:52;6.70;99.90
3071;DHT22;1546;47.208;9.038;2023-04-09T05:40:20;6.80;99.90
3071;DHT22;1546;47.208;9.038;2023-04-09T05:42:47;6.80;99.90
3071;DHT22;1546;47.208;9.038;2023-04-09T05:45:14;6.90;99.90
3071;DHT22;1546;47.208;9.038;2023-04-09T05:47:42;7.00;99.90
3071;DHT22;1546;47.208;9.038;2023-04-09T05:50:09;7.20;99.90
3071;DHT22;1546;47.208;9.038;2023-04-09T05:52:36;7.30;99.90
3071;DHT22;1546;47.208;9.038;2023-04-09T05:55:04;7.50;99.90
3071;DHT22;1546;47.208;9.038;2023-04-09T05:57:31;7.50;99.90
3071;DHT22;1546;47.208;9.038;2023-04-09T05:59:58;7.40;99.90
3071;DHT22;1546;47.208;9.038;2023-04-09T06:02:24;7.30;99.90
3071;DHT22;1546;47.208;9.038;2023-04-09T06:04:53;7.10;99.90
3071;DHT22;1546;47.208;9.038;2023-04-09T06:07:20;6.90;99.90
3071;DHT22;1546;47.208;9.038;2023-04-09T06:09:46;6.80;99.90
3071;DHT22;1546;47.208;9.038;2023-04-09T06:12:13;6.80;99.90
3071;DHT22;1546;47.208;9.038;2023-04-09T06:14:41;6.60;99.90
3071;DHT22;1546;47.208;9.038;2023-04-09T06:17:07;6.50;99.90
3071;DHT22;1546;47.208;9.038;2023-04-09T06:19:34;6.50;99.90
3071;DHT22;1546;47.208;9.038;2023-04-09T06:22:02;6.50;99.90
3071;DHT22;1546;47.208;9.038;2023-04-09T06:24:30;6.50;99.90
3071;DHT22;1546;47.208;9.038;2023-04-09T06:26:57;6.60;99.90
3071;DHT22;1546;47.208;9.038;2023-04-09T06:29:24;6.70;99.90
3071;DHT22;1546;47.208;9.038;2023-04-09T06:31:51;6.70;99.90
3071;DHT22;1546;47.208;9.038;2023-04-09T06:34:18;6.80;99.90
3071;DHT22;1546;47.208;9.038;2023-04-09T06:36:45;6.80;99.90
3071;DHT22;1546;47.208;9.038;2023-04-09T06:39:13;6.80;99.90
3071;DHT22;1546;47.208;9.038;2023-04-09T06:41:40;6.80;99.90
3071;DHT22;1546;47.208;9.038;2023-04-09T06:44:07;6.90;99.90
3071;DHT22;1546;47.208;9.038;2023-04-09T06:46:34;6.90;99.90
3071;DHT22;1546;47.208;9.038;2023-04-09T06:49:00;7.00;99.90
3071;DHT22;1546;47.208;9.038;2023-04-09T06:51:27;7.00;99.90
3071;DHT22;1546;47.208;9.038;2023-04-09T06:53:54;7.10;99.90
3071;DHT22;1546;47.208;9.038;2023-04-09T06:56:22;7.30;99.90
3071;DHT22;1546;47.208;9.038;2023-04-09T06:58:49;7.40;99.90
3071;DHT22;1546;47.208;9.038;2023-04-09T07:01:16;7.60;99.90
3071;DHT22;1546;47.208;9.038;2023-04-09T07:03:43;7.80;99.90
3071;DHT22;1546;47.208;9.038;2023-04-09T07:06:10;7.90;99.90
3071;DHT22;1546;47.208;9.038;2023-04-09T07:08:37;8.10;99.90
3071;DHT22;1546;47.208;9.038;2023-04-09T07:11:04;8.30;99.90
3071;DHT22;1546;47.208;9.038;2023-04-09T07:13:32;8.40;99.90
3071;DHT22;1546;47.208;9.038;2023-04-09T07:15:59;8.60;99.90
3071;DHT22;1546;47.208;9.038;2023-04-09T07:18:26;8.80;99.90
3071;DHT22;1546;47.208;9.038;2023-04-09T07:20:52;8.90;99.90
3071;DHT22;1546;47.208;9.038;2023-04-09T07:23:19;8.90;99.90
3071;DHT22;1546;47.208;9.038;2023-04-09T07:25:47;9.10;99.90
3071;DHT22;1546;47.208;9.038;2023-04-09T07:28:13;9.20;99.90
3071;DHT22;1546;47.208;9.038;2023-04-09T07:30:42;9.30;99.90
3071;DHT22;1546;47.208;9.038;2023-04-09T07:33:10;9.20;99.90
3071;DHT22;1546;47.208;9.038;2023-04-09T07:35:37;9.30;99.90
3071;DHT22;1546;47.208;9.038;2023-04-09T07:38:04;9.30;99.90
3071;DHT22;1546;47.208;9.038;2023-04-09T07:40:33;9.40;99.90
3071;DHT22;1546;47.208;9.038;2023-04-09T07:43:01;9.50;99.90
3071;DHT22;1546;47.208;9.038;2023-04-09T07:45:28;9.50;99.90
3071;DHT22;1546;47.208;9.038;2023-04-09T07:47:56;9.50;99.90
3071;DHT22;1546;47.208;9.038;2023-04-09T07:50:23;9.50;99.90
3071;DHT22;1546;47.208;9.038;2023-04-09T07:52:49;9.50;99.90
3071;DHT22;1546;47.208;9.038;2023-04-09T07:55:16;9.60;99.90
3071;DHT22;1546;47.208;9.038;2023-04-09T07:57:44;9.90;99.90
3071;DHT22;1546;47.208;9.038;2023-04-09T08:00:13;10.10;99.90
3071;DHT22;1546;47.208;9.038;2023-04-09T08:02:40;10.10;99.50
3071;DHT22;1546;47.208;9.038;2023-04-09T08:05:09;10.00;99.20
3071;DHT22;1546;47.208;9.038;2023-04-09T08:07:36;10.10;99.00
3071;DHT22;1546;47.208;9.038;2023-04-09T08:10:03;10.20;98.60
3071;DHT22;1546;47.208;9.038;2023-04-09T08:12:30;10.20;98.80
3071;DHT22;1546;47.208;9.038;2023-04-09T08:14:57;10.30;98.10
3071;DHT22;1546;47.208;9.038;2023-04-09T08:17:24;10.40;97.60
3071;DHT22;1546;47.208;9.038;2023-04-09T08:19:51;10.40;98.20
3071;DHT22;1546;47.208;9.038;2023-04-09T08:22:20;10.40;97.70
3071;DHT22;1546;47.208;9.038;2023-04-09T08:24:50;10.50;98.00
3071;DHT22;1546;47.208;9.038;2023-04-09T08:27:17;10.70;97.30
3071;DHT22;1546;47.208;9.038;2023-04-09T08:29:44;10.90;97.30
3071;DHT22;1546;47.208;9.038;2023-04-09T08:32:11;11.20;97.30
3071;DHT22;1546;47.208;9.038;2023-04-09T08:34:38;11.10;96.50
3071;DHT22;1546;47.208;9.038;2023-04-09T08:37:05;10.80;96.20
3071;DHT22;1546;47.208;9.038;2023-04-09T08:39:33;10.70;96.60
3071;DHT22;1546;47.208;9.038;2023-04-09T08:42:01;10.80;97.30
3071;DHT22;1546;47.208;9.038;2023-04-09T08:44:30;11.00;96.70
3071;DHT22;1546;47.208;9.038;2023-04-09T08:46:57;11.20;95.60
3071;DHT22;1546;47.208;9.038;2023-04-09T08:49:24;11.10;95.60
3071;DHT22;1546;47.208;9.038;2023-04-09T08:51:51;11.20;95.30
3071;DHT22;1546;47.208;9.038;2023-04-09T08:54:18;11.30;94.40
3071;DHT22;1546;47.208;9.038;2023-04-09T08:56:47;11.50;95.30
3071;DHT22;1546;47.208;9.038;2023-04-09T08:59:14;11.60;95.00
3071;DHT22;1546;47.208;9.038;2023-04-09T09:01:42;11.30;94.70
3071;DHT22;1546;47.208;9.038;2023-04-09T09:04:11;11.30;95.10
3071;DHT22;1546;47.208;9.038;2023-04-09T09:06:39;11.30;95.60
3071;DHT22;1546;47.208;9.038;2023-04-09T09:09:08;11.60;95.50
3071;DHT22;1546;47.208;9.038;2023-04-09T09:11:36;11.60;95.20
3071;DHT22;1546;47.208;9.038;2023-04-09T09:14:05;11.50;94.50
3071;DHT22;1546;47.208;9.038;2023-04-09T09:16:33;11.50;94.80
3071;DHT22;1546;47.208;9.038;2023-04-09T09:19:04;11.60;94.30
3071;DHT22;1546;47.208;9.038;2023-04-09T09:21:31;11.80;94.80
3071;DHT22;1546;47.208;9.038;2023-04-09T09:24:01;11.90;94.20
3071;DHT22;1546;47.208;9.038;2023-04-09T09:26:29;11.80;94.20
3071;DHT22;1546;47.208;9.038;2023-04-09T09:28:57;11.90;94.20
3071;DHT22;1546;47.208;9.038;2023-04-09T09:31:27;12.00;94.00
3071;DHT22;1546;47.208;9.038;2023-04-09T09:33:54;12.10;93.90
3071;DHT22;1546;47.208;9.038;2023-04-09T09:36:31;12.30;94.00
3071;DHT22;1546;47.208;9.038;2023-04-09T09:38:59;12.50;93.20
3071;DHT22;1546;47.208;9.038;2023-04-09T09:41:28;12.60;93.00
3071;DHT22;1546;47.208;9.038;2023-04-09T09:43:55;12.60;92.90
3071;DHT22;1546;47.208;9.038;2023-04-09T09:46:24;12.70;93.40
3071;DHT22;1546;47.208;9.038;2023-04-09T09:48:52;12.90;93.10
3071;DHT22;1546;47.208;9.038;2023-04-09T09:51:23;13.10;93.30
3071;DHT22;1546;47.208;9.038;2023-04-09T09:53:54;13.30;93.50
3071;DHT22;1546;47.208;9.038;2023-04-09T09:56:23;13.20;92.60
3071;DHT22;1546;47.208;9.038;2023-04-09T09:59:01;13.20;93.20
3071;DHT22;1546;47.208;9.038;2023-04-09T10:01:32;13.60;92.10
3071;DHT22;1546;47.208;9.038;2023-04-09T10:04:01;13.80;91.80
3071;DHT22;1546;47.208;9.038;2023-04-09T10:06:31;14.20;91.70
3071;DHT22;1546;47.208;9.038;2023-04-09T10:09:02;14.30;90.70
3071;DHT22;1546;47.208;9.038;2023-04-09T10:11:30;14.40;90.80
3071;DHT22;1546;47.208;9.038;2023-04-09T10:13:58;14.00;90.80
3071;DHT22;1546;47.208;9.038;2023-04-09T10:16:26;14.00;91.50
3071;DHT22;1546;47.208;9.038;2023-04-09T10:18:54;13.90;91.80
3071;DHT22;1546;47.208;9.038;2023-04-09T10:21:31;14.10;91.30
3071;DHT22;1546;47.208;9.038;2023-04-09T10:24:00;14.30;91.30
3071;DHT22;1546;47.208;9.038;2023-04-09T10:26:32;14.40;91.00
3071;DHT22;1546;47.208;9.038;2023-04-09T10:29:03;14.30;91.50
3071;DHT22;1546;47.208;9.038;2023-04-09T10:31:49;14.30;90.70
3071;DHT22;1546;47.208;9.038;2023-04-09T10:34:17;14.30;90.90
3071;DHT22;1546;47.208;9.038;2023-04-09T10:36:49;14.50;91.70
3071;DHT22;1546;47.208;9.038;2023-04-09T10:39:17;14.50;92.10
3071;DHT22;1546;47.208;9.038;2023-04-09T10:41:45;14.60;91.40
3071;DHT22;1546;47.208;9.038;2023-04-09T10:44:20;14.90;91.40
3071;DHT22;1546;47.208;9.038;2023-04-09T10:46:47;16.10;90.90
3071;DHT22;1546;47.208;9.038;2023-04-09T10:49:17;17.00;88.50
3071;DHT22;1546;47.208;9.038;2023-04-09T10:51:50;17.30;84.60
3071;DHT22;1546;47.208;9.038;2023-04-09T10:54:37;18.00;83.10
3071;DHT22;1546;47.208;9.038;2023-04-09T10:57:15;17.60;84.00
3071;DHT22;1546;47.208;9.038;2023-04-09T10:59:44;18.40;86.00
3071;DHT22;1546;47.208;9.038;2023-04-09T11:02:44;18.00;81.20
3071;DHT22;1546;47.208;9.038;2023-04-09T11:05:30;17.40;83.20
3071;DHT22;1546;47.208;9.038;2023-04-09T11:08:03;17.90;84.70
3071;DHT22;1546;47.208;9.038;2023-04-09T11:10:31;18.50;83.00
3071;DHT22;1546;47.208;9.038;2023-04-09T11:12:58;18.60;80.30
3071;DHT22;1546;47.208;9.038;2023-04-09T11:15:25;18.10;80.50
3071;DHT22;1546;47.208;9.038;2023-04-09T11:17:52;17.00;82.80
3071;DHT22;1546;47.208;9.038;2023-04-09T11:20:20;16.90;82.90
3071;DHT22;1546;47.208;9.038;2023-04-09T11:22:48;17.20;84.70
3071;DHT22;1546;47.208;9.038;2023-04-09T11:25:23;17.70;83.30
3071;DHT22;1546;47.208;9.038;2023-04-09T11:27:51;17.70;83.40
3071;DHT22;1546;47.208;9.038;2023-04-09T11:30:18;17.90;82.40
3071;DHT22;1546;47.208;9.038;2023-04-09T11:32:45;18.10;81.20
3071;DHT22;1546;47.208;9.038;2023-04-09T11:35:13;18.10;80.80
3071;DHT22;1546;47.208;9.038;2023-04-09T11:37:41;18.50;79.80
3071;DHT22;1546;47.208;9.038;2023-04-09T11:40:14;18.70;77.90
3071;DHT22;1546;47.208;9.038;2023-04-09T11:42:44;18.60;79.90
3071;DHT22;1546;47.208;9.038;2023-04-09T11:45:11;18.60;76.40
3071;DHT22;1546;47.208;9.038;2023-04-09T11:47:39;18.70;77.40
3071;DHT22;1546;47.208;9.038;2023-04-09T11:50:08;19.10;75.60
3071;DHT22;1546;47.208;9.038;2023-04-09T11:52:35;19.60;76.20
3071;DHT22;1546;47.208;9.038;2023-04-09T11:55:03;19.90;72.40
3071;DHT22;1546;47.208;9.038;2023-04-09T11:57:41;20.00;71.60
3071;DHT22;1546;47.208;9.038;2023-04-09T12:00:12;19.50;71.40
3071;DHT22;1546;47.208;9.038;2023-04-09T12:02:41;19.30;73.30
3071;DHT22;1546;47.208;9.038;2023-04-09T12:05:10;19.40;74.10
3071;DHT22;1546;47.208;9.038;2023-04-09T12:07:38;19.30;74.40
3071;DHT22;1546;47.208;9.038;2023-04-09T12:10:06;19.20;74.50
3071;DHT22;1546;47.208;9.038;2023-04-09T12:12:42;18.90;73.10
3071;DHT22;1546;47.208;9.038;2023-04-09T12:15:18;19.40;74.80
3071;DHT22;1546;47.208;9.038;2023-04-09T12:17:50;19.50;72.00
3071;DHT22;1546;47.208;9.038;2023-04-09T12:20:27;19.60;70.40
3071;DHT22;1546;47.208;9.038;2023-04-09T12:22:54;18.60;73.60
3071;DHT22;1546;47.208;9.038;2023-04-09T12:25:21;17.90;70.40
3071;DHT22;1546;47.208;9.038;2023-04-09T12:27:48;17.40;72.40
3071;DHT22;1546;47.208;9.038;2023-04-09T12:30:16;16.50;74.20
3071;DHT22;1546;47.208;9.038;2023-04-09T12:32:43;15.80;76.40
3071;DHT22;1546;47.208;9.038;2023-04-09T12:35:10;15.80;76.90
3071;DHT22;1546;47.208;9.038;2023-04-09T12:37:37;15.60;77.20
3071;DHT22;1546;47.208;9.038;2023-04-09T12:40:06;15.00;78.50
3071;DHT22;1546;47.208;9.038;2023-04-09T12:42:33;14.70;78.60
3071;DHT22;1546;47.208;9.038;2023-04-09T12:44:59;14.90;79.00
3071;DHT22;1546;47.208;9.038;2023-04-09T12:47:28;15.20;78.90
3071;DHT22;1546;47.208;9.038;2023-04-09T12:49:54;15.80;77.20
3071;DHT22;1546;47.208;9.038;2023-04-09T12:52:21;16.80;76.70
3071;DHT22;1546;47.208;9.038;2023-04-09T12:54:49;17.10;73.80
3071;DHT22;1546;47.208;9.038;2023-04-09T12:57:16;17.10;74.70
3071;DHT22;1546;47.208;9.038;2023-04-09T12:59:43;18.20;74.00
3071;DHT22;1546;47.208;9.038;2023-04-09T13:02:10;19.30;70.90
3071;DHT22;1546;47.208;9.038;2023-04-09T13:04:39;19.50;70.30
3071;DHT22;1546;47.208;9.038;2023-04-09T13:07:06;20.40;68.90
3071;DHT22;1546;47.208;9.038;2023-04-09T13:09:33;20.40;67.90
3071;DHT22;1546;47.208;9.038;2023-04-09T13:12:01;20.30;68.30
3071;DHT22;1546;47.208;9.038;2023-04-09T13:14:28;20.10;65.20
3071;DHT22;1546;47.208;9.038;2023-04-09T13:16:55;19.70;66.10
3071;DHT22;1546;47.208;9.038;2023-04-09T13:19:22;18.80;67.80
3071;DHT22;1546;47.208;9.038;2023-04-09T13:21:50;18.10;68.10
3071;DHT22;1546;47.208;9.038;2023-04-09T13:24:17;18.40;68.30
3071;DHT22;1546;47.208;9.038;2023-04-09T13:26:44;18.70;68.00
3071;DHT22;1546;47.208;9.038;2023-04-09T13:29:11;17.90;69.00
3071;DHT22;1546;47.208;9.038;2023-04-09T13:31:37;16.90;70.30
3071;DHT22;1546;47.208;9.038;2023-04-09T13:34:04;16.00;71.90
3071;DHT22;1546;47.208;9.038;2023-04-09T13:36:32;16.00;74.10
3071;DHT22;1546;47.208;9.038;2023-04-09T13:39:01;16.50;73.20
3071;DHT22;1546;47.208;9.038;2023-04-09T13:41:30;16.20;72.70
3071;DHT22;1546;47.208;9.038;2023-04-09T13:43:57;16.60;72.90
3071;DHT22;1546;47.208;9.038;2023-04-09T13:46:25;17.20;72.90
3071;DHT22;1546;47.208;9.038;2023-04-09T13:48:52;17.50;70.30
3071;DHT22;1546;47.208;9.038;2023-04-09T13:51:19;17.40;69.70
3071;DHT22;1546;47.208;9.038;2023-04-09T13:53:46;17.00;69.40
3071;DHT22;1546;47.208;9.038;2023-04-09T13:56:14;16.90;70.30
3071;DHT22;1546;47.208;9.038;2023-04-09T13:58:41;17.60;70.30
3071;DHT22;1546;47.208;9.038;2023-04-09T14:01:09;18.40;67.50
3071;DHT22;1546;47.208;9.038;2023-04-09T14:03:36;18.40;66.90
3071;DHT22;1546;47.208;9.038;2023-04-09T14:06:05;18.80;67.60
3071;DHT22;1546;47.208;9.038;2023-04-09T14:08:33;19.90;65.40
3071;DHT22;1546;47.208;9.038;2023-04-09T14:11:00;20.20;63.60
3071;DHT22;1546;47.208;9.038;2023-04-09T14:13:28;20.60;62.00
3071;DHT22;1546;47.208;9.038;2023-04-09T14:15:55;19.90;63.10
3071;DHT22;1546;47.208;9.038;2023-04-09T14:18:22;18.80;65.20
3071;DHT22;1546;47.208;9.038;2023-04-09T14:20:49;17.70;67.00
3071;DHT22;1546;47.208;9.038;2023-04-09T14:23:16;16.90;68.30
3071;DHT22;1546;47.208;9.038;2023-04-09T14:25:43;16.80;69.30
3071;DHT22;1546;47.208;9.038;2023-04-09T14:28:10;17.10;69.20
3071;DHT22;1546;47.208;9.038;2023-04-09T14:30:38;17.30;71.00
3071;DHT22;1546;47.208;9.038;2023-04-09T14:33:05;17.20;69.50
3071;DHT22;1546;47.208;9.038;2023-04-09T14:35:32;17.20;69.70
3071;DHT22;1546;47.208;9.038;2023-04-09T14:37:59;17.70;69.10
3071;DHT22;1546;47.208;9.038;2023-04-09T14:40:29;17.70;69.00
3071;DHT22;1546;47.208;9.038;2023-04-09T14:42:56;17.30;67.50
3071;DHT22;1546;47.208;9.038;2023-04-09T14:45:22;16.80;69.30
3071;DHT22;1546;47.208;9.038;2023-04-09T14:47:51;16.90;69.20
3071;DHT22;1546;47.208;9.038;2023-04-09T14:50:18;16.60;67.80
3071;DHT22;1546;47.208;9.038;2023-04-09T14:52:45;16.60;69.30
3071;DHT22;1546;47.208;9.038;2023-04-09T14:55:12;16.90;68.70
3071;DHT22;1546;47.208;9.038;2023-04-09T14:57:39;17.30;68.90
3071;DHT22;1546;47.208;9.038;2023-04-09T15:00:08;17.80;68.50
3071;DHT22;1546;47.208;9.038;2023-04-09T15:02:35;18.10;68.70
3071;DHT22;1546;47.208;9.038;2023-04-09T15:05:04;18.70;66.80
3071;DHT22;1546;47.208;9.038;2023-04-09T15:07:32;19.80;70.30
3071;DHT22;1546;47.208;9.038;2023-04-09T15:09:58;19.90;67.10
3071;DHT22;1546;47.208;9.038;2023-04-09T15:12:26;19.80;63.10
3071;DHT22;1546;47.208;9.038;2023-04-09T15:14:54;19.00;65.20
3071;DHT22;1546;47.208;9.038;2023-04-09T15:17:21;18.20;62.40
3071;DHT22;1546;47.208;9.038;2023-04-09T15:19:48;17.70;64.50
3071;DHT22;1546;47.208;9.038;2023-04-09T15:22:16;17.50;65.90
3071;DHT22;1546;47.208;9.038;2023-04-09T15:24:43;16.90;65.10
3071;DHT22;1546;47.208;9.038;2023-04-09T15:27:10;16.60;66.30
3071;DHT22;1546;47.208;9.038;2023-04-09T15:29:36;16.60;68.40
3071;DHT22;1546;47.208;9.038;2023-04-09T15:32:03;16.60;66.90
3071;DHT22;1546;47.208;9.038;2023-04-09T15:34:30;16.80;68.20
3071;DHT22;1546;47.208;9.038;2023-04-09T15:36:57;16.80;67.00
3071;DHT22;1546;47.208;9.038;2023-04-09T15:39:26;16.80;66.70
3071;DHT22;1546;47.208;9.038;2023-04-09T15:41:53;16.70;67.60
3071;DHT22;1546;47.208;9.038;2023-04-09T15:44:21;16.50;68.00
3071;DHT22;1546;47.208;9.038;2023-04-09T15:46:47;16.20;68.30
3071;DHT22;1546;47.208;9.038;2023-04-09T15:49:15;15.90;68.90
3071;DHT22;1546;47.208;9.038;2023-04-09T15:51:42;15.60;70.00
3071;DHT22;1546;47.208;9.038;2023-04-09T15:54:09;15.90;69.20
3071;DHT22;1546;47.208;9.038;2023-04-09T15:56:37;15.90;69.30
3071;DHT22;1546;47.208;9.038;2023-04-09T15:59:04;15.60;69.80
3071;DHT22;1546;47.208;9.038;2023-04-09T16:01:32;15.40;71.00
3071;DHT22;1546;47.208;9.038;2023-04-09T16:03:59;15.30;70.70
3071;DHT22;1546;47.208;9.038;2023-04-09T16:06:26;15.30;71.00
3071;DHT22;1546;47.208;9.038;2023-04-09T16:08:54;15.30;70.70
3071;DHT22;1546;47.208;9.038;2023-04-09T16:11:21;15.60;71.00
3071;DHT22;1546;47.208;9.038;2023-04-09T16:13:49;15.70;70.90
3071;DHT22;1546;47.208;9.038;2023-04-09T16:16:16;15.80;70.20